createdAt,value
2018-09-21T00:02:17.823Z,16.68
2018-09-21T00:04:47.161Z,16.63
2018-09-21T00:07:16.527Z,16.63
2018-09-21T00:09:45.863Z,16.65
2018-09-21T00:12:15.182Z,16.75
2018-09-21T00:14:44.640Z,16.67
2018-09-21T00:17:13.948Z,16.60
2018-09-21T00:19:43.257Z,16.68
2018-09-21T00:22:12.767Z,16.80
2018-09-21T00:24:42.120Z,16.84
2018-09-21T00:27:11.664Z,16.84
2018-09-21T00:29:40.963Z,16.87
2018-09-21T00:32:10.322Z,17.05
2018-09-21T00:34:39.619Z,17.05
2018-09-21T00:37:08.976Z,17.12
2018-09-21T00:39:38.223Z,17.07
2018-09-21T00:42:07.477Z,17.40
2018-09-21T00:44:36.710Z,17.27
2018-09-21T00:47:06.038Z,17.59
2018-09-21T00:49:35.335Z,17.69
2018-09-21T00:52:04.644Z,18.00
2018-09-21T00:54:33.917Z,19.15
2018-09-21T00:57:03.210Z,19.36
2018-09-21T00:59:32.469Z,19.75
2018-09-21T01:02:01.756Z,20.02
2018-09-21T01:04:35.031Z,20.24
2018-09-21T01:07:04.308Z,20.33
2018-09-21T01:09:33.587Z,20.39
2018-09-21T01:12:02.832Z,20.42
2018-09-21T01:14:32.094Z,20.22
2018-09-21T01:17:01.375Z,20.23
2018-09-21T01:19:30.629Z,20.11
2018-09-21T01:21:59.878Z,20.37
2018-09-21T01:24:29.206Z,20.27
2018-09-21T01:26:58.669Z,20.32
2018-09-21T01:29:28.239Z,20.21
2018-09-21T01:31:57.503Z,20.21
2018-09-21T01:34:27.462Z,20.16
2018-09-21T01:36:56.720Z,19.92
2018-09-21T01:39:26.080Z,19.74
2018-09-21T01:41:55.441Z,19.50
2018-09-21T01:44:24.734Z,19.64
2018-09-21T01:46:54.035Z,20.13
2018-09-21T01:49:23.390Z,20.12
2018-09-21T01:51:52.761Z,20.17
2018-09-21T01:54:22.131Z,20.12
2018-09-21T01:56:51.496Z,20.11
2018-09-21T01:59:20.839Z,20.13
2018-09-21T02:01:50.483Z,20.28
2018-09-21T02:04:22.299Z,20.23
2018-09-21T02:06:51.630Z,20.22
2018-09-21T02:09:21.093Z,20.20
2018-09-21T02:11:50.420Z,20.14
2018-09-21T02:14:19.787Z,20.19
2018-09-21T02:16:49.167Z,20.10
2018-09-21T02:19:18.494Z,20.11
2018-09-21T02:21:47.826Z,20.08
2018-09-21T02:24:17.139Z,20.01
2018-09-21T02:26:46.482Z,19.78
2018-09-21T02:29:15.778Z,19.58
2018-09-21T02:31:45.319Z,19.36
2018-09-21T02:34:15.252Z,19.27
2018-09-21T02:36:44.560Z,19.22
2018-09-21T02:39:13.915Z,19.06
2018-09-21T02:41:43.215Z,18.82
2018-09-21T02:44:12.528Z,18.73
2018-09-21T02:46:41.830Z,18.84
2018-09-21T02:49:11.110Z,18.80
2018-09-21T02:51:40.540Z,18.71
2018-09-21T02:54:09.815Z,18.64
2018-09-21T02:56:39.901Z,18.51
2018-09-21T02:59:09.171Z,18.32
2018-09-21T03:01:38.460Z,18.76
2018-09-21T03:04:07.734Z,19.28
2018-09-21T03:06:37.011Z,19.31
2018-09-21T03:09:09.441Z,19.53
2018-09-21T03:11:38.926Z,19.55
2018-09-21T03:14:08.291Z,19.58
2018-09-21T03:16:37.628Z,19.65
2018-09-21T03:19:06.928Z,19.67
2018-09-21T03:21:36.296Z,19.67
2018-09-21T03:24:05.624Z,19.62
2018-09-21T03:26:34.893Z,19.73
2018-09-21T03:29:04.307Z,19.64
2018-09-21T03:31:33.599Z,19.73
2018-09-21T03:34:02.902Z,19.64
2018-09-21T03:36:32.287Z,19.60
2018-09-21T03:39:01.601Z,19.33
2018-09-21T03:41:30.902Z,19.46
2018-09-21T03:44:00.289Z,19.43
2018-09-21T03:46:29.602Z,19.30
2018-09-21T03:48:59.534Z,19.47
2018-09-21T03:51:28.959Z,19.39
2018-09-21T03:53:58.270Z,19.33
2018-09-21T03:56:27.611Z,19.17
2018-09-21T03:58:56.934Z,19.24
2018-09-21T04:01:26.234Z,19.30
2018-09-21T04:03:55.569Z,19.29
2018-09-21T04:06:24.858Z,19.41
2018-09-21T04:08:54.156Z,19.56
2018-09-21T04:11:23.639Z,19.70
2018-09-21T04:13:53.026Z,19.61
2018-09-21T04:16:22.396Z,19.58
2018-09-21T04:18:51.767Z,19.54
2018-09-21T04:21:21.046Z,19.35
2018-09-21T04:23:50.369Z,19.32
2018-09-21T04:26:19.641Z,19.25
2018-09-21T04:28:48.962Z,18.99
2018-09-21T04:31:18.379Z,19.23
2018-09-21T04:33:48.442Z,19.35
2018-09-21T04:36:17.816Z,19.29
2018-09-21T04:38:47.258Z,19.62
2018-09-21T04:41:16.574Z,19.70
2018-09-21T04:43:45.929Z,19.86
2018-09-21T04:46:15.229Z,19.71
2018-09-21T04:48:45.102Z,19.81
2018-09-21T04:51:14.371Z,19.53
2018-09-21T04:53:44.147Z,19.64
2018-09-21T04:56:13.446Z,19.68
2018-09-21T04:58:43.463Z,19.77
2018-09-21T05:01:12.740Z,19.67
2018-09-21T05:03:42.047Z,19.68
2018-09-21T05:06:11.299Z,20.00
2018-09-21T05:08:40.698Z,20.04
2018-09-21T05:11:10.062Z,20.33
2018-09-21T05:13:39.423Z,20.41
2018-09-21T05:16:08.999Z,20.52
2018-09-21T05:18:38.258Z,20.51
2018-09-21T05:21:07.535Z,20.62
2018-09-21T05:23:36.861Z,20.61
2018-09-21T05:26:06.649Z,20.63
2018-09-21T05:28:35.955Z,20.67
2018-09-21T05:31:05.249Z,20.64
2018-09-21T05:33:34.549Z,20.65
2018-09-21T05:36:03.927Z,20.74
2018-09-21T05:38:33.336Z,20.59
2018-09-21T05:41:02.775Z,20.64
2018-09-21T05:43:32.154Z,20.73
2018-09-21T05:46:01.479Z,20.86
2018-09-21T05:48:30.808Z,20.85
2018-09-21T05:51:00.243Z,20.82
2018-09-21T05:53:29.590Z,20.83
2018-09-21T05:55:58.935Z,20.92
2018-09-21T05:58:28.315Z,21.02
2018-09-21T06:00:57.602Z,21.00
2018-09-21T06:03:26.879Z,21.00
2018-09-21T06:05:56.164Z,21.11
2018-09-21T06:08:25.484Z,21.11
2018-09-21T06:10:54.789Z,21.16
2018-09-21T06:13:24.107Z,21.24
2018-09-21T06:15:53.481Z,21.32
2018-09-21T06:18:22.837Z,21.29
2018-09-21T06:20:52.384Z,21.34
2018-09-21T06:23:21.688Z,21.35
2018-09-21T06:25:51.045Z,21.36
2018-09-21T06:28:20.402Z,21.36
2018-09-21T06:30:49.850Z,21.48
2018-09-21T06:33:19.151Z,21.51
2018-09-21T06:35:48.453Z,21.63
2018-09-21T06:38:17.787Z,21.87
2018-09-21T06:40:47.072Z,21.92
2018-09-21T06:43:16.502Z,22.00
2018-09-21T06:45:46.977Z,22.15
2018-09-21T06:48:16.472Z,22.23
2018-09-21T06:50:45.961Z,22.31
2018-09-21T06:53:15.448Z,22.51
2018-09-21T06:55:44.929Z,22.57
2018-09-21T06:58:14.296Z,22.66
2018-09-21T07:00:43.746Z,22.69
2018-09-21T07:03:13.139Z,22.71
2018-09-21T07:05:42.559Z,22.78
2018-09-21T07:08:11.951Z,22.73
2018-09-21T07:10:41.293Z,22.67
2018-09-21T07:13:10.730Z,22.76
2018-09-21T07:15:40.170Z,22.85
2018-09-21T07:18:09.558Z,23.21
2018-09-21T07:20:39.132Z,23.48
2018-09-21T07:23:08.573Z,23.90
2018-09-21T07:25:38.023Z,24.12
2018-09-21T07:28:07.397Z,24.38
2018-09-21T07:30:37.620Z,24.34
2018-09-21T07:33:07.131Z,24.68
2018-09-21T07:35:36.573Z,24.91
2018-09-21T07:38:05.972Z,25.04
2018-09-21T07:40:35.481Z,25.09
2018-09-21T07:43:05.358Z,25.23
2018-09-21T07:45:34.818Z,25.04
2018-09-21T07:48:04.327Z,25.11
2018-09-21T07:50:33.895Z,25.16
2018-09-21T07:53:03.574Z,25.12
2018-09-21T07:55:32.977Z,25.22
2018-09-21T07:58:02.495Z,25.23
2018-09-21T08:00:31.930Z,25.17
2018-09-21T08:03:01.836Z,25.35
2018-09-21T08:05:34.448Z,25.15
2018-09-21T08:08:05.406Z,25.11
2018-09-21T08:10:34.948Z,25.01
2018-09-21T08:13:04.490Z,25.08
2018-09-21T08:15:33.982Z,25.15
2018-09-21T08:18:03.983Z,25.21
2018-09-21T08:20:33.402Z,25.16
2018-09-21T08:23:03.950Z,25.22
2018-09-21T08:25:33.297Z,25.30
2018-09-21T08:28:03.426Z,25.49
2018-09-21T08:30:32.824Z,25.40
2018-09-21T08:33:03.223Z,25.35
2018-09-21T08:35:32.726Z,25.30
2018-09-21T08:38:02.371Z,25.48
2018-09-21T08:40:31.770Z,25.30
2018-09-21T08:43:01.446Z,25.36
2018-09-21T08:45:30.950Z,25.51
2018-09-21T08:48:00.493Z,25.78
2018-09-21T08:50:29.890Z,26.08
2018-09-21T08:52:59.376Z,26.47
2018-09-21T08:55:28.825Z,26.60
2018-09-21T08:57:58.493Z,26.75
2018-09-21T09:00:29.085Z,26.50
2018-09-21T09:02:58.661Z,26.36
2018-09-21T09:05:28.001Z,26.40
2018-09-21T09:07:57.447Z,26.59
2018-09-21T09:10:26.846Z,26.57
2018-09-21T09:12:56.351Z,26.38
2018-09-21T09:15:27.729Z,26.39
2018-09-21T09:17:57.926Z,26.59
2018-09-21T09:20:29.664Z,26.76
2018-09-21T09:22:59.990Z,26.78
2018-09-21T09:25:30.231Z,26.46
2018-09-21T09:28:01.083Z,26.38
2018-09-21T09:30:31.074Z,26.26
2018-09-21T09:33:01.506Z,26.23
2018-09-21T09:35:32.406Z,26.61
2018-09-21T09:38:05.066Z,26.51
2018-09-21T09:43:22.213Z,27.04
2018-09-21T09:45:51.522Z,27.59
2018-09-21T09:48:20.964Z,28.00
2018-09-21T09:50:50.292Z,27.56
2018-09-21T09:53:19.886Z,27.57
2018-09-21T09:55:49.337Z,27.25
2018-09-21T09:58:19.697Z,27.30
2018-09-21T10:00:52.381Z,27.22
2018-09-21T10:03:23.432Z,26.89
2018-09-21T10:05:52.628Z,26.86
2018-09-21T10:08:21.927Z,26.71
2018-09-21T10:10:51.240Z,26.66
2018-09-21T10:13:20.718Z,26.94
2018-09-21T10:15:50.177Z,27.21
2018-09-21T10:18:19.585Z,27.23
2018-09-21T10:20:49.072Z,27.13
2018-09-21T10:23:18.477Z,27.05
2018-09-21T10:25:47.819Z,27.06
2018-09-21T10:28:17.371Z,27.04
2018-09-21T10:30:46.746Z,26.99
2018-09-21T10:33:16.097Z,27.10
2018-09-21T10:35:45.544Z,27.05
2018-09-21T10:38:14.857Z,27.01
2018-09-21T10:40:44.239Z,27.26
2018-09-21T10:43:15.595Z,27.40
2018-09-21T10:45:52.334Z,27.51
2018-09-21T10:48:34.515Z,27.49
2018-09-21T10:51:05.904Z,27.69
2018-09-21T10:53:41.196Z,28.33
2018-09-21T10:56:18.668Z,28.34
2018-09-21T10:59:03.871Z,28.24
2018-09-21T11:01:33.778Z,28.59
2018-09-21T11:04:03.400Z,28.10
2018-09-21T11:06:32.778Z,27.73
2018-09-21T11:09:02.504Z,27.45
2018-09-21T11:11:32.094Z,27.26
2018-09-21T11:14:01.562Z,27.09
2018-09-21T11:16:30.896Z,26.94
2018-09-21T11:19:00.310Z,26.84
2018-09-21T11:21:29.943Z,26.87
2018-09-21T11:23:59.295Z,26.99
2018-09-21T11:26:28.686Z,27.07
2018-09-21T11:29:05.075Z,27.16
2018-09-21T11:31:50.710Z,27.08
2018-09-21T11:34:26.423Z,27.00
2018-09-21T11:36:56.036Z,26.91
2018-09-21T11:39:25.835Z,26.86
2018-09-21T11:41:55.382Z,26.73
2018-09-21T11:44:24.738Z,26.72
2018-09-21T11:46:54.181Z,26.56
2018-09-21T11:49:23.532Z,26.39
2018-09-21T11:51:52.834Z,26.34
2018-09-21T11:54:22.516Z,26.43
2018-09-21T11:59:34.984Z,26.49
2018-09-21T12:02:04.291Z,26.54
2018-09-21T12:04:33.726Z,26.73
2018-09-21T12:07:04.918Z,26.71
2018-09-21T12:09:37.917Z,26.41
2018-09-21T12:12:15.890Z,26.44
2018-09-21T12:14:48.516Z,26.46
2018-09-21T12:17:17.923Z,26.51
2018-09-21T12:19:48.681Z,26.38
2018-09-21T12:22:31.916Z,26.21
2018-09-21T12:25:06.520Z,26.20
2018-09-21T12:27:35.882Z,26.25
2018-09-21T12:30:05.649Z,26.49
2018-09-21T12:32:35.172Z,26.58
2018-09-21T12:35:05.077Z,26.77
2018-09-21T12:37:34.871Z,26.72
2018-09-21T12:40:04.229Z,26.77
2018-09-21T12:42:33.701Z,26.70
2018-09-21T12:45:03.296Z,26.84
2018-09-21T12:47:32.732Z,26.68
2018-09-21T12:50:02.040Z,26.69
2018-09-21T12:52:31.936Z,26.78
2018-09-21T12:55:01.458Z,26.60
2018-09-21T12:57:30.746Z,26.42
2018-09-21T13:00:00.056Z,26.16
2018-09-21T13:02:30.035Z,25.83
2018-09-21T13:04:59.471Z,25.75
2018-09-21T13:07:28.926Z,25.73
2018-09-21T13:09:58.331Z,25.76
2018-09-21T13:12:28.900Z,25.96
2018-09-21T13:14:58.148Z,25.87
2018-09-21T13:17:35.770Z,26.04
2018-09-21T13:20:15.038Z,26.29
2018-09-21T13:22:46.371Z,26.24
2018-09-21T13:25:15.789Z,26.18
2018-09-21T13:27:46.480Z,26.29
2018-09-21T13:30:16.084Z,26.30
2018-09-21T13:32:48.559Z,26.21
2018-09-21T13:35:19.378Z,26.15
2018-09-21T13:37:48.989Z,26.05
2018-09-21T13:40:20.982Z,26.05
2018-09-21T13:42:50.489Z,25.85
2018-09-21T13:45:23.577Z,25.64
2018-09-21T13:47:53.590Z,25.48
2018-09-21T13:50:23.622Z,25.38
2018-09-21T13:52:53.041Z,25.42
2018-09-21T13:55:22.709Z,25.34
2018-09-21T13:57:52.015Z,25.32
2018-09-21T14:00:23.617Z,25.44
2018-09-21T14:02:55.648Z,25.54
2018-09-21T14:05:25.042Z,25.62
2018-09-21T14:07:54.970Z,25.64
2018-09-21T14:10:24.260Z,25.67
2018-09-21T14:12:53.654Z,25.73
2018-09-21T14:15:22.898Z,25.54
2018-09-21T14:17:52.180Z,25.47
2018-09-21T14:20:21.480Z,25.48
2018-09-21T14:22:50.803Z,25.70
2018-09-21T14:25:20.396Z,25.63
2018-09-21T14:27:53.071Z,25.60
2018-09-21T14:30:22.542Z,25.48
2018-09-21T14:32:59.176Z,25.34
2018-09-21T14:35:28.898Z,25.42
2018-09-21T14:37:58.306Z,25.45
2018-09-21T14:40:28.625Z,25.36
2018-09-21T14:42:58.188Z,25.35
2018-09-21T14:45:27.583Z,25.32
2018-09-21T14:47:56.907Z,25.29
2018-09-21T14:50:26.249Z,25.15
2018-09-21T14:52:55.771Z,25.04
2018-09-21T14:58:04.596Z,24.82
2018-09-21T15:00:33.968Z,24.79
2018-09-21T15:03:03.559Z,24.70
2018-09-21T15:05:32.992Z,24.58
2018-09-21T15:08:02.315Z,24.57
2018-09-21T15:10:31.603Z,24.60
2018-09-21T15:13:00.909Z,24.58
2018-09-21T15:15:32.154Z,24.52
2018-09-21T15:18:02.321Z,24.45
2018-09-21T15:20:33.649Z,24.44
2018-09-21T15:23:02.942Z,24.38
2018-09-21T15:25:32.224Z,24.13
2018-09-21T15:28:01.517Z,22.60
2018-09-21T15:30:33.611Z,22.14
2018-09-21T15:33:02.912Z,21.76
2018-09-21T15:35:32.230Z,21.47
2018-09-21T15:38:01.610Z,20.39
2018-09-21T15:40:30.971Z,19.02
2018-09-21T15:43:00.259Z,18.50
2018-09-21T15:45:29.654Z,17.74
2018-09-21T15:47:58.991Z,17.23
2018-09-21T15:50:28.316Z,17.01
2018-09-21T15:52:57.598Z,16.91
2018-09-21T15:58:02.967Z,16.49
2018-09-21T16:00:32.295Z,16.48
2018-09-21T16:03:01.659Z,16.43
2018-09-21T16:05:30.983Z,16.40
2018-09-21T16:08:05.508Z,16.32
2018-09-21T16:10:36.682Z,16.06
2018-09-21T16:13:11.157Z,15.96
2018-09-21T16:15:40.724Z,15.92
2018-09-21T16:18:13.001Z,15.91
2018-09-21T16:20:42.320Z,15.81
2018-09-21T16:23:13.543Z,15.82
2018-09-21T16:25:46.523Z,15.72
2018-09-21T16:28:15.982Z,15.92
2018-09-21T16:30:46.873Z,15.53
2018-09-21T16:33:17.423Z,15.57
2018-09-21T16:35:46.897Z,15.46
2018-09-21T16:38:18.365Z,15.36
2018-09-21T16:40:48.041Z,15.38
2018-09-21T16:43:17.334Z,15.34
2018-09-21T16:45:46.747Z,15.25
2018-09-21T16:48:16.179Z,15.18
2018-09-21T16:50:45.477Z,15.05
2018-09-21T16:53:14.743Z,15.15
2018-09-21T16:55:44.038Z,15.03
2018-09-21T16:58:13.326Z,14.98
2018-09-21T17:00:42.628Z,14.92
2018-09-21T17:03:11.921Z,14.80
2018-09-21T17:05:42.376Z,14.86
2018-09-21T17:08:13.041Z,14.88
2018-09-21T17:10:42.854Z,14.96
2018-09-21T17:13:15.155Z,14.71
2018-09-21T17:15:45.667Z,14.78
2018-09-21T17:18:15.446Z,14.84
2018-09-21T17:20:49.172Z,14.79
2018-09-21T17:23:18.739Z,14.84
2018-09-21T17:25:48.207Z,14.77
2018-09-21T17:28:17.600Z,14.86
2018-09-21T17:30:47.161Z,14.83
2018-09-21T17:33:16.455Z,14.81
2018-09-21T17:35:45.859Z,14.75
2018-09-21T17:38:15.494Z,14.71
2018-09-21T17:40:44.883Z,14.72
2018-09-21T17:43:14.209Z,14.81
2018-09-21T17:45:43.600Z,14.80
2018-09-21T17:48:12.862Z,14.68
2018-09-21T17:50:42.128Z,14.65
2018-09-21T17:53:11.343Z,14.58
2018-09-21T17:55:40.625Z,14.52
2018-09-21T17:58:09.904Z,14.41
2018-09-21T18:00:39.462Z,14.37
2018-09-21T18:03:08.860Z,14.35
2018-09-21T18:05:38.195Z,14.29
2018-09-21T18:08:07.588Z,14.27
2018-09-21T18:10:37.164Z,14.24
2018-09-21T18:13:06.807Z,14.22
2018-09-21T18:15:36.194Z,14.15
2018-09-21T18:18:05.692Z,14.17
2018-09-21T18:20:35.028Z,14.07
2018-09-21T18:23:04.404Z,14.08
2018-09-21T18:25:33.862Z,14.07
2018-09-21T18:28:03.293Z,14.07
2018-09-21T18:30:32.642Z,14.10
2018-09-21T18:33:02.039Z,14.08
2018-09-21T18:35:31.330Z,14.10
2018-09-21T18:38:00.787Z,14.09
2018-09-21T18:40:30.800Z,14.08
2018-09-21T18:43:00.155Z,14.00
2018-09-21T18:45:29.639Z,14.00
2018-09-21T18:47:59.163Z,13.98
2018-09-21T18:50:28.631Z,13.96
2018-09-21T18:55:37.131Z,13.92
2018-09-21T18:58:06.577Z,13.90
2018-09-21T19:00:36.212Z,13.91
2018-09-21T19:03:06.348Z,13.91
2018-09-21T19:05:35.700Z,13.90
2018-09-21T19:08:05.142Z,13.95
2018-09-21T19:10:34.467Z,13.91
2018-09-21T19:13:03.788Z,13.92
2018-09-21T19:15:33.142Z,13.90
2018-09-21T19:18:02.641Z,13.96
2018-09-21T19:20:31.887Z,14.01
2018-09-21T19:23:01.239Z,14.06
2018-09-21T19:25:30.624Z,13.96
2018-09-21T19:27:59.995Z,14.07
2018-09-21T19:30:29.274Z,14.08
2018-09-21T19:33:00.828Z,14.03
2018-09-21T19:35:30.583Z,14.09
2018-09-21T19:37:59.878Z,14.08
2018-09-21T19:40:29.286Z,14.04
2018-09-21T19:43:04.107Z,14.07
2018-09-21T19:45:33.358Z,14.03
2018-09-21T19:48:03.282Z,13.99
2018-09-21T19:50:32.621Z,14.03
2018-09-21T19:53:02.068Z,14.08
2018-09-21T19:55:31.330Z,14.16
2018-09-21T19:58:01.633Z,14.16
2018-09-21T20:00:31.216Z,14.20
2018-09-21T20:03:00.618Z,14.23
2018-09-21T20:05:29.951Z,14.24
2018-09-21T20:07:59.290Z,14.25
2018-09-21T20:10:29.655Z,14.30
2018-09-21T20:12:58.978Z,14.28
2018-09-21T20:15:28.404Z,14.34
2018-09-21T20:17:57.756Z,14.38
2018-09-21T20:20:27.198Z,14.32
2018-09-21T20:22:56.491Z,14.34
2018-09-21T20:25:29.690Z,14.34
2018-09-21T20:27:59.052Z,14.36
2018-09-21T20:32:36.341Z,14.42
2018-09-21T20:35:05.688Z,14.40
2018-09-21T20:37:34.968Z,14.42
2018-09-21T20:40:04.285Z,14.41
2018-09-21T20:42:33.539Z,14.40
2018-09-21T20:45:02.822Z,14.37
2018-09-21T20:47:32.094Z,14.32
2018-09-21T20:50:01.476Z,14.35
2018-09-21T20:52:30.743Z,14.32
2018-09-21T20:55:00.030Z,14.36
2018-09-21T20:57:29.297Z,14.38
2018-09-21T20:59:58.644Z,14.38
2018-09-21T21:02:27.999Z,14.42
2018-09-21T21:04:57.350Z,14.42
2018-09-21T21:07:26.603Z,14.37
2018-09-21T21:09:55.958Z,14.47
2018-09-21T21:12:25.287Z,14.44
2018-09-21T21:14:54.836Z,14.46
2018-09-21T21:17:24.399Z,14.50
2018-09-21T21:19:53.653Z,14.50
2018-09-21T21:22:22.960Z,14.49
2018-09-21T21:24:52.355Z,14.47
2018-09-21T21:27:21.631Z,14.47
2018-09-21T21:29:50.886Z,14.40
2018-09-21T21:32:20.143Z,14.47
2018-09-21T21:34:49.438Z,14.46
2018-09-21T21:37:18.893Z,14.48
2018-09-21T21:39:48.662Z,14.45
2018-09-21T21:42:17.990Z,14.44
2018-09-21T21:44:47.318Z,14.41
2018-09-21T21:47:16.668Z,14.45
2018-09-21T21:49:45.974Z,14.41
2018-09-21T21:52:15.296Z,14.46
2018-09-21T21:54:44.622Z,14.38
2018-09-21T21:57:13.990Z,14.38
2018-09-21T21:59:44.272Z,14.40
2018-09-21T22:02:14.002Z,14.39
2018-09-21T22:04:43.336Z,14.37
2018-09-21T22:07:13.237Z,14.40
2018-09-21T22:09:42.711Z,14.35
2018-09-21T22:12:17.156Z,14.40
2018-09-21T22:14:46.568Z,14.36
2018-09-21T22:17:16.107Z,14.44
2018-09-21T22:19:45.545Z,14.41
2018-09-21T22:22:14.989Z,14.42
2018-09-21T22:24:44.467Z,14.40
2018-09-21T22:27:13.775Z,14.38
2018-09-21T22:29:43.085Z,14.30
2018-09-21T22:32:12.377Z,14.30
2018-09-21T22:34:41.697Z,14.32
2018-09-21T22:37:11.180Z,14.27
2018-09-21T22:39:40.502Z,14.27
2018-09-21T22:42:09.745Z,14.31
2018-09-21T22:44:39.013Z,14.25
2018-09-21T22:47:08.652Z,14.26
2018-09-21T22:49:38.422Z,14.18
2018-09-21T22:52:07.748Z,14.29
2018-09-21T22:54:37.015Z,14.26
2018-09-21T22:57:06.294Z,14.25
2018-09-21T22:59:35.592Z,14.22
2018-09-21T23:02:04.926Z,14.13
2018-09-21T23:04:34.186Z,14.12
2018-09-21T23:07:03.613Z,14.06
2018-09-21T23:09:32.929Z,14.04
2018-09-21T23:12:02.210Z,14.04
2018-09-21T23:14:33.380Z,14.05
2018-09-21T23:17:02.775Z,14.06
2018-09-21T23:19:32.198Z,14.01
2018-09-21T23:22:01.579Z,14.02
2018-09-21T23:24:30.865Z,14.06
2018-09-21T23:27:01.395Z,14.02
2018-09-21T23:29:30.646Z,14.02
2018-09-21T23:31:59.925Z,14.01
2018-09-21T23:34:29.223Z,13.96
2018-09-21T23:36:58.510Z,13.86
2018-09-21T23:39:27.794Z,13.80
2018-09-21T23:41:57.022Z,13.77
2018-09-21T23:44:26.338Z,13.74
2018-09-21T23:46:55.590Z,13.79
2018-09-21T23:49:24.883Z,13.63
2018-09-21T23:51:54.132Z,13.52
2018-09-21T23:54:23.475Z,13.47
2018-09-21T23:56:52.721Z,13.46
2018-09-21T23:59:22.069Z,13.43
